Time;durP1;ratioP1;P1;durP2;ratioP2;P2;SDS_P1;SDS_P2;PMS_P1;PMS_P2;Temp;Humidity;BMP_temperature;BMP_pressure;BME280_temperature;BME280_humidity;BME280_pressure;Samples;Min_cycle;Max_cycle;Signal;HPM_P1;HPM_P2
2020/12/03 00:00:32;;;;;;;23.07;17.87;;;3.40;99.90;;;;;;5089878;28;20204;-38
2020/12/03 00:03:01;;;;;;;23.00;18.70;;;3.30;99.90;;;;;;5085750;28;20254;-36
2020/12/03 00:05:28;;;;;;;22.80;18.10;;;3.30;99.90;;;;;;5091522;28;20661;-38
2020/12/03 00:07:55;;;;;;;22.27;17.63;;;3.30;99.90;;;;;;5088836;28;20220;-37
2020/12/03 00:10:23;;;;;;;23.00;17.77;;;3.30;99.90;;;;;;5082470;28;20248;-37
2020/12/03 00:13:11;;;;;;;26.10;19.23;;;3.30;99.90;;;;;;5091013;28;20201;-37
2020/12/03 00:15:38;;;;;;;27.00;19.73;;;3.10;99.90;;;;;;5085878;28;20267;-37
2020/12/03 00:18:06;;;;;;;25.07;19.43;;;3.00;99.90;;;;;;5067800;28;20196;-37
2020/12/03 00:20:34;;;;;;;25.30;19.00;;;3.00;99.90;;;;;;5086427;28;20241;-37
2020/12/03 00:23:01;;;;;;;25.23;20.30;;;3.00;99.90;;;;;;5083284;28;20194;-38
2020/12/03 00:25:28;;;;;;;22.63;18.90;;;2.90;99.90;;;;;;5078717;28;20621;-38
2020/12/03 00:27:56;;;;;;;25.47;19.50;;;2.90;99.90;;;;;;5084144;28;20190;-38
2020/12/03 00:30:24;;;;;;;25.20;19.33;;;2.90;99.90;;;;;;5076732;28;20289;-38
2020/12/03 00:32:52;;;;;;;28.23;21.03;;;2.90;99.90;;;;;;5079941;28;20290;-39
2020/12/03 00:35:20;;;;;;;27.50;20.93;;;2.80;99.90;;;;;;5083176;28;20218;-38
2020/12/03 00:37:47;;;;;;;26.70;21.23;;;2.90;99.90;;;;;;5087520;28;20258;-39
2020/12/03 00:40:15;;;;;;;24.03;19.73;;;2.90;99.90;;;;;;5081822;28;20186;-39
2020/12/03 00:42:42;;;;;;;27.30;21.07;;;2.80;99.90;;;;;;5088539;28;20555;-38
2020/12/03 00:45:10;;;;;;;28.47;21.20;;;2.70;99.90;;;;;;5087068;28;20683;-38
2020/12/03 00:47:38;;;;;;;27.27;20.80;;;2.70;99.90;;;;;;5085973;28;20233;-38
2020/12/03 00:50:09;;;;;;;29.20;21.73;;;2.70;99.90;;;;;;5078959;28;20197;-38
2020/12/03 00:52:36;;;;;;;27.43;19.57;;;2.60;99.90;;;;;;5077787;28;20203;-38
2020/12/03 00:55:03;;;;;;;29.83;21.23;;;2.60;99.90;;;;;;5084647;28;20232;-38
2020/12/03 00:57:30;;;;;;;29.87;21.87;;;2.70;99.90;;;;;;5085708;28;20206;-37
2020/12/03 00:59:56;;;;;;;25.57;19.00;;;2.60;99.90;;;;;;5084261;28;20266;-38
2020/12/03 01:02:23;;;;;;;26.20;19.37;;;2.60;99.90;;;;;;5083759;28;20308;-38
2020/12/03 01:04:50;;;;;;;26.03;21.07;;;2.60;99.90;;;;;;5088484;28;20236;-37
2020/12/03 01:07:18;;;;;;;26.77;20.57;;;2.60;99.90;;;;;;5091725;28;20194;-38
2020/12/03 01:09:45;;;;;;;25.97;19.33;;;2.50;99.90;;;;;;5092447;28;20680;-38
2020/12/03 01:12:12;;;;;;;24.87;19.63;;;2.50;99.90;;;;;;5092301;28;20217;-38
2020/12/03 01:14:39;;;;;;;28.07;22.40;;;2.50;99.90;;;;;;5092313;28;20233;-38
2020/12/03 01:17:09;;;;;;;28.43;22.30;;;2.40;99.90;;;;;;5091896;28;20282;-38
2020/12/03 01:19:37;;;;;;;27.70;20.97;;;2.50;99.90;;;;;;5087564;28;20207;-38
2020/12/03 01:22:03;;;;;;;26.07;20.33;;;2.60;99.90;;;;;;5071617;28;20230;-38
2020/12/03 01:24:31;;;;;;;28.87;22.17;;;2.60;99.90;;;;;;5072261;28;20268;-38
2020/12/03 01:26:58;;;;;;;29.37;22.20;;;2.50;99.90;;;;;;5071943;28;20578;-38
2020/12/03 01:29:25;;;;;;;27.43;21.07;;;2.50;99.90;;;;;;5092058;28;20205;-38
2020/12/03 01:31:52;;;;;;;24.80;19.27;;;2.60;99.90;;;;;;5089748;28;20231;-37
2020/12/03 01:34:20;;;;;;;26.47;21.43;;;2.60;99.90;;;;;;5085325;28;20567;-37
2020/12/03 01:36:49;;;;;;;26.97;19.27;;;2.60;99.90;;;;;;5086974;28;20194;-38
2020/12/03 01:39:16;;;;;;;33.67;20.73;;;2.60;99.90;;;;;;5077438;28;20209;-37
2020/12/03 01:41:44;;;;;;;26.63;20.60;;;2.40;99.90;;;;;;5079480;28;20228;-37
2020/12/03 01:44:11;;;;;;;27.33;20.37;;;2.50;99.90;;;;;;5084403;28;20635;-37
2020/12/03 01:46:38;;;;;;;29.47;21.97;;;2.50;99.90;;;;;;5087864;28;20238;-38
2020/12/03 01:49:13;;;;;;;28.10;21.03;;;2.50;99.90;;;;;;5079396;28;20194;-37
2020/12/03 01:51:44;;;;;;;30.10;21.43;;;2.50;99.90;;;;;;5078181;28;20578;-37
2020/12/03 01:54:13;;;;;;;25.90;19.83;;;2.40;99.90;;;;;;5077838;28;20232;-37
2020/12/03 01:56:55;;;;;;;30.50;22.13;;;2.40;99.90;;;;;;5077250;28;20228;-37
2020/12/03 01:59:23;;;;;;;27.23;20.73;;;2.50;99.90;;;;;;5077094;28;20293;-37
2020/12/03 02:01:50;;;;;;;30.07;21.87;;;2.50;99.90;;;;;;5079779;28;20225;-37
2020/12/03 02:04:16;;;;;;;26.77;20.50;;;2.50;99.90;;;;;;5083526;28;20194;-37
2020/12/03 02:06:43;;;;;;;28.20;21.23;;;2.50;99.90;;;;;;5077608;28;20548;-37
2020/12/03 02:09:13;;;;;;;27.67;22.40;;;2.50;99.90;;;;;;5079447;28;20549;-37
2020/12/03 02:11:40;;;;;;;27.93;21.80;;;2.60;99.90;;;;;;5078417;28;20221;-37
2020/12/03 02:14:11;;;;;;;25.80;19.07;;;2.70;99.90;;;;;;5073279;28;20756;-38
2020/12/03 02:16:39;;;;;;;26.83;20.07;;;2.70;99.90;;;;;;5085056;28;20204;-37
2020/12/03 02:19:16;;;;;;;25.00;20.10;;;2.80;99.90;;;;;;5079725;28;20209;-37
2020/12/03 02:21:44;;;;;;;24.73;19.57;;;2.80;99.90;;;;;;5069919;28;20813;-37
2020/12/03 02:24:11;;;;;;;25.83;19.00;;;2.70;99.90;;;;;;5070422;28;20665;-37
2020/12/03 02:26:46;;;;;;;26.20;19.83;;;2.70;99.90;;;;;;5070437;28;20281;-38
2020/12/03 02:29:16;;;;;;;24.47;18.00;;;2.70;99.90;;;;;;5069391;28;20232;-37
2020/12/03 02:31:43;;;;;;;24.53;18.60;;;2.60;99.90;;;;;;5070042;28;20591;-36
2020/12/03 02:34:10;;;;;;;23.13;18.10;;;2.60;99.90;;;;;;5069985;28;20308;-37
2020/12/03 02:36:36;;;;;;;23.40;18.07;;;2.70;99.90;;;;;;5076057;28;20200;-38
2020/12/03 02:39:04;;;;;;;25.53;20.80;;;2.80;99.90;;;;;;5079509;28;20241;-38
2020/12/03 02:41:31;;;;;;;24.43;18.67;;;2.90;99.90;;;;;;5080982;28;20233;-37
2020/12/03 02:43:57;;;;;;;25.40;19.47;;;2.80;99.90;;;;;;5083212;28;20197;-37
2020/12/03 02:46:24;;;;;;;23.77;18.47;;;2.80;99.90;;;;;;5083796;28;20225;-37
2020/12/03 02:48:51;;;;;;;24.63;19.60;;;2.80;99.90;;;;;;5083223;28;20254;-37
2020/12/03 02:51:18;;;;;;;24.17;18.87;;;2.80;99.90;;;;;;5081202;28;20229;-37
2020/12/03 02:53:44;;;;;;;24.00;19.17;;;2.80;99.90;;;;;;5081753;28;20202;-36
2020/12/03 02:56:12;;;;;;;23.77;18.20;;;2.80;99.90;;;;;;5084744;28;20202;-37
2020/12/03 02:58:44;;;;;;;24.87;18.20;;;2.80;99.90;;;;;;5082659;28;20198;-37
2020/12/03 03:01:11;;;;;;;25.53;18.97;;;2.80;99.90;;;;;;5083654;28;20223;-37
2020/12/03 03:03:38;;;;;;;22.73;17.50;;;3.00;99.90;;;;;;5089026;28;20220;-37
2020/12/03 03:06:04;;;;;;;23.13;18.10;;;3.00;99.90;;;;;;5089047;28;20536;-37
2020/12/03 03:08:31;;;;;;;21.30;17.17;;;3.20;99.90;;;;;;5093250;28;20205;-37
2020/12/03 03:10:58;;;;;;;24.87;19.27;;;3.10;99.90;;;;;;5092074;28;20284;-37
2020/12/03 03:13:26;;;;;;;23.20;17.23;;;3.20;99.90;;;;;;5088220;28;20551;-37
2020/12/03 03:15:53;;;;;;;22.67;18.33;;;3.20;99.90;;;;;;5083321;28;20218;-38
2020/12/03 03:18:21;;;;;;;23.63;18.70;;;3.20;99.90;;;;;;5075422;28;20750;-38
2020/12/03 03:20:47;;;;;;;28.30;17.97;;;3.00;99.90;;;;;;5087030;28;20224;-38
2020/12/03 03:23:15;;;;;;;23.80;18.73;;;2.90;99.90;;;;;;5102821;28;20197;-37
2020/12/03 03:25:42;;;;;;;26.20;18.73;;;2.80;99.90;;;;;;5084694;28;20206;-37
2020/12/03 03:28:10;;;;;;;21.33;17.63;;;2.70;99.90;;;;;;5082625;28;20195;-38
2020/12/03 03:30:38;;;;;;;25.73;19.83;;;2.60;99.90;;;;;;5082932;28;20265;-37
2020/12/03 03:33:05;;;;;;;24.93;19.87;;;2.70;99.90;;;;;;5101357;28;20572;-37
2020/12/03 03:35:32;;;;;;;24.47;18.07;;;2.70;99.90;;;;;;5094139;28;20217;-37
2020/12/03 03:37:59;;;;;;;26.47;19.57;;;2.80;99.90;;;;;;5074611;28;20194;-37
2020/12/03 03:40:26;;;;;;;23.47;18.90;;;2.90;99.90;;;;;;5078017;28;20218;-37
2020/12/03 03:42:52;;;;;;;21.30;16.60;;;3.00;99.90;;;;;;5093234;28;20194;-38
2020/12/03 03:45:19;;;;;;;25.40;18.20;;;3.10;99.90;;;;;;5092802;28;20208;-37
2020/12/03 03:47:47;;;;;;;21.83;18.13;;;3.10;99.90;;;;;;5092839;28;20193;-38
2020/12/03 03:50:14;;;;;;;22.50;18.80;;;3.20;99.90;;;;;;5073251;28;20225;-37
2020/12/03 03:52:40;;;;;;;23.77;17.33;;;3.10;99.90;;;;;;5090786;28;20208;-38
2020/12/03 03:55:07;;;;;;;23.33;17.60;;;3.00;99.90;;;;;;5092682;28;20222;-37
2020/12/03 03:57:34;;;;;;;22.33;18.40;;;3.00;99.90;;;;;;5092170;28;20198;-37
2020/12/03 04:00:01;;;;;;;22.30;17.67;;;2.90;99.90;;;;;;5092165;28;20201;-37
2020/12/03 04:02:27;;;;;;;24.50;18.67;;;2.90;99.90;;;;;;5079955;28;20365;-37
2020/12/03 04:04:55;;;;;;;23.67;17.93;;;2.90;99.90;;;;;;5072229;28;20191;-37
2020/12/03 04:07:21;;;;;;;23.63;18.77;;;2.90;99.90;;;;;;5078325;28;20198;-38
2020/12/03 04:09:48;;;;;;;23.27;19.10;;;2.90;99.90;;;;;;5087030;28;20205;-38
2020/12/03 04:12:15;;;;;;;22.50;18.57;;;3.00;99.90;;;;;;5090322;28;20247;-37
2020/12/03 04:14:42;;;;;;;24.20;18.40;;;2.90;99.90;;;;;;5072239;28;20231;-37
2020/12/03 04:17:08;;;;;;;22.13;17.70;;;3.00;99.90;;;;;;5072033;28;20206;-38
2020/12/03 04:19:35;;;;;;;23.40;17.90;;;3.00;99.90;;;;;;5072066;28;20685;-37
2020/12/03 04:22:03;;;;;;;22.30;17.43;;;3.00;99.90;;;;;;5070921;28;20794;-37
2020/12/03 04:24:29;;;;;;;22.50;17.10;;;3.00;99.90;;;;;;5091781;28;20197;-38
2020/12/03 04:26:56;;;;;;;23.90;18.60;;;3.00;99.90;;;;;;5092166;28;20229;-36
2020/12/03 04:29:23;;;;;;;20.63;16.57;;;3.00;99.90;;;;;;5080915;28;20205;-38
2020/12/03 04:31:49;;;;;;;23.13;18.40;;;3.00;99.90;;;;;;5078147;28;20228;-37
2020/12/03 04:34:17;;;;;;;23.33;18.30;;;3.00;99.90;;;;;;5090048;28;20216;-37
2020/12/03 04:36:44;;;;;;;21.33;17.03;;;3.00;99.90;;;;;;5087687;28;20217;-37
2020/12/03 04:39:12;;;;;;;21.87;17.53;;;3.00;99.90;;;;;;5079836;28;20190;-37
2020/12/03 04:41:39;;;;;;;24.20;19.23;;;2.90;99.90;;;;;;5092070;28;20225;-37
2020/12/03 04:44:15;;;;;;;25.57;19.80;;;2.90;99.90;;;;;;5089347;28;20613;-37
2020/12/03 04:46:47;;;;;;;24.00;18.33;;;2.90;99.90;;;;;;5072481;28;20194;-37
2020/12/03 04:49:27;;;;;;;25.40;17.87;;;2.90;99.90;;;;;;5087427;28;20224;-37
2020/12/03 04:52:42;;;;;;;23.73;18.60;;;3.10;99.90;;;;;;5091254;28;20247;-37
2020/12/03 04:55:24;;;;;;;24.20;17.87;;;3.20;99.90;;;;;;5080196;28;20228;-38
2020/12/03 04:58:00;;;;;;;24.47;18.97;;;3.20;99.90;;;;;;5072382;28;20205;-37
2020/12/03 05:00:39;;;;;;;23.73;18.27;;;3.30;99.90;;;;;;5091524;28;20237;-37
2020/12/03 05:03:27;;;;;;;27.42;19.50;;;3.30;99.90;;;;;;5046456;22;20223;-38
2020/12/03 05:06:05;;;;;;;24.57;18.00;;;3.20;99.90;;;;;;5030073;28;20196;-38
2020/12/03 05:08:38;;;;;;;23.10;19.23;;;3.20;99.90;;;;;;5030266;28;20233;-37
2020/12/03 05:11:17;;;;;;;24.53;18.67;;;3.30;99.90;;;;;;5012525;28;20702;-37
2020/12/03 05:13:49;;;;;;;23.90;18.47;;;3.30;99.90;;;;;;5029582;28;20202;-37
2020/12/03 05:16:25;;;;;;;26.97;21.30;;;3.20;99.90;;;;;;5027533;28;20319;-37
2020/12/03 05:18:54;;;;;;;23.77;19.37;;;3.10;99.90;;;;;;5028314;28;20250;-37
2020/12/03 05:21:25;;;;;;;23.33;18.63;;;3.20;99.90;;;;;;5011846;28;20710;-36
2020/12/03 05:23:51;;;;;;;26.70;19.83;;;3.10;99.90;;;;;;5011907;28;20608;-37
2020/12/03 05:26:21;;;;;;;22.67;18.17;;;3.10;99.90;;;;;;5011451;28;20220;-37
2020/12/03 05:28:54;;;;;;;26.10;18.92;;;3.00;99.90;;;;;;5011877;28;20228;-37
2020/12/03 05:31:40;;;;;;;25.03;18.97;;;2.90;99.90;;;;;;5031614;28;20251;-37
2020/12/03 05:34:11;;;;;;;22.07;18.60;;;3.00;99.90;;;;;;5031251;28;20208;-37
2020/12/03 05:36:41;;;;;;;25.98;20.33;;;3.00;99.90;;;;;;5037278;28;20754;-37
2020/12/03 05:39:13;;;;;;;22.97;18.80;;;3.10;99.90;;;;;;5030993;28;20206;-37
2020/12/03 05:41:46;;;;;;;23.23;18.67;;;3.20;99.90;;;;;;5021152;28;20237;-37
2020/12/03 05:44:26;;;;;;;24.27;18.53;;;3.10;99.90;;;;;;5031914;28;20199;-37
2020/12/03 05:46:54;;;;;;;24.13;19.70;;;3.10;99.90;;;;;;5030942;28;20294;-37
2020/12/03 05:49:29;;;;;;;27.43;20.13;;;3.00;99.90;;;;;;5030916;28;20592;-37
2020/12/03 05:52:12;;;;;;;24.57;19.40;;;2.90;99.90;;;;;;5031214;28;20268;-37
2020/12/03 05:54:39;;;;;;;24.93;19.17;;;2.90;99.90;;;;;;5030482;28;20208;-36
2020/12/03 05:57:21;;;;;;;25.63;19.93;;;2.90;99.90;;;;;;5030717;28;20291;-37
2020/12/03 05:59:50;;;;;;;26.10;19.87;;;2.90;99.90;;;;;;5029579;28;20237;-37
2020/12/03 06:02:27;;;;;;;25.10;19.23;;;2.90;99.90;;;;;;5030442;28;20239;-37
2020/12/03 06:05:12;;;;;;;24.60;19.43;;;2.90;99.90;;;;;;5030740;28;20261;-36
2020/12/03 06:07:51;;;;;;;26.93;20.83;;;2.80;99.90;;;;;;5030591;28;20241;-38
2020/12/03 06:10:29;;;;;;;26.50;20.13;;;2.80;99.90;;;;;;5030446;28;20246;-37
2020/12/03 06:13:19;;;;;;;25.67;19.70;;;2.90;99.90;;;;;;5030710;28;20262;-36
2020/12/03 06:15:50;;;;;;;25.33;19.43;;;3.00;99.90;;;;;;5032522;28;20222;-37
2020/12/03 06:18:29;;;;;;;24.07;18.60;;;3.00;99.90;;;;;;5034268;28;20187;-36
2020/12/03 06:21:13;;;;;;;26.23;19.93;;;3.00;99.90;;;;;;5034384;28;20280;-37
2020/12/03 06:23:58;;;;;;;30.00;21.33;;;2.90;99.90;;;;;;5034367;28;20203;-37
2020/12/03 06:26:40;;;;;;;27.00;22.00;;;2.80;99.90;;;;;;5034372;28;20219;-37
2020/12/03 06:29:31;;;;;;;30.10;22.30;;;2.80;99.90;;;;;;5034280;28;20208;-37
2020/12/03 06:32:22;;;;;;;27.17;22.27;;;2.90;99.90;;;;;;5034348;28;20215;-37
2020/12/03 06:34:58;;;;;;;29.87;21.90;;;2.80;99.90;;;;;;5033922;28;20269;-37
2020/12/03 06:37:30;;;;;;;28.80;21.97;;;2.70;99.90;;;;;;5033365;28;20230;-37
2020/12/03 06:40:01;;;;;;;33.97;23.90;;;2.70;99.90;;;;;;5034414;28;20207;-37
2020/12/03 06:42:34;;;;;;;32.37;24.30;;;2.70;99.90;;;;;;5034253;28;20220;-36
2020/12/03 06:45:14;;;;;;;32.27;24.37;;;2.70;99.90;;;;;;5034343;28;20334;-37
2020/12/03 06:48:11;;;;;;;35.33;26.13;;;2.70;99.90;;;;;;5033874;28;20208;-37
2020/12/03 06:50:54;;;;;;;31.40;24.37;;;2.80;99.90;;;;;;5023141;28;20357;-37
2020/12/03 06:54:07;;;;;;;33.90;24.33;;;2.70;99.90;;;;;;5034184;28;20571;-36
2020/12/03 06:57:02;;;;;;;36.40;25.57;;;2.70;99.90;;;;;;5033548;28;20227;-37
2020/12/03 06:59:55;;;;;;;32.07;23.60;;;2.60;99.90;;;;;;5033412;28;20207;-37
2020/12/03 07:02:56;;;;;;;32.07;23.63;;;2.60;99.90;;;;;;5033437;28;20282;-37
2020/12/03 07:05:52;;;;;;;37.27;27.13;;;2.60;99.90;;;;;;5033702;28;20279;-37
2020/12/03 07:08:42;;;;;;;35.87;24.37;;;2.70;99.90;;;;;;5033722;28;20210;-37
2020/12/03 07:11:49;;;;;;;34.90;26.40;;;2.70;99.90;;;;;;5033739;28;20236;-38
2020/12/03 07:14:55;;;;;;;36.73;27.57;;;2.80;99.90;;;;;;5033851;28;20266;-37
2020/12/03 07:17:54;;;;;;;39.30;27.10;;;2.70;99.90;;;;;;5033029;28;20571;-37
2020/12/03 07:20:55;;;;;;;38.83;28.50;;;2.70;99.90;;;;;;5029776;28;20286;-38
2020/12/03 07:23:33;;;;;;;38.20;28.07;;;2.70;99.90;;;;;;5026410;28;20718;-37
2020/12/03 07:26:03;;;;;;;40.43;28.30;;;2.70;99.90;;;;;;5033478;28;20589;-38
2020/12/03 07:28:35;;;;;;;37.83;26.33;;;2.60;99.90;;;;;;5033228;28;20675;-37
2020/12/03 07:31:05;;;;;;;41.67;27.23;;;2.60;99.90;;;;;;5032935;28;20219;-38
2020/12/03 07:33:44;;;;;;;37.00;25.50;;;2.60;99.90;;;;;;5033589;28;20287;-38
2020/12/03 07:36:35;;;;;;;35.43;24.77;;;2.50;99.90;;;;;;5033138;28;20463;-37
2020/12/03 07:39:06;;;;;;;35.30;25.87;;;2.50;99.90;;;;;;5033066;28;20196;-37
2020/12/03 07:41:40;;;;;;;38.97;26.87;;;2.60;99.90;;;;;;5033473;28;20708;-38
2020/12/03 07:44:20;;;;;;;40.10;26.60;;;2.50;99.90;;;;;;5032708;28;20204;-37
2020/12/03 07:46:47;;;;;;;36.50;26.83;;;2.50;99.90;;;;;;5027022;28;20200;-38
2020/12/03 07:49:41;;;;;;;35.73;27.07;;;2.40;99.90;;;;;;5032755;28;20226;-37
2020/12/03 07:52:26;;;;;;;37.93;26.40;;;2.40;99.90;;;;;;5032686;28;20242;-37
2020/12/03 07:54:53;;;;;;;35.57;25.07;;;2.50;99.90;;;;;;5033421;28;20215;-37
2020/12/03 07:57:25;;;;;;;42.57;26.77;;;2.50;99.90;;;;;;5033153;28;20214;-37
2020/12/03 07:59:51;;;;;;;37.00;26.73;;;2.50;99.90;;;;;;5032733;28;20617;-37
2020/12/03 08:02:57;;;;;;;39.27;26.33;;;2.40;99.90;;;;;;5031107;28;20293;-36
2020/12/03 08:05:40;;;;;;;36.63;26.83;;;2.40;99.90;;;;;;5027513;28;20211;-38
2020/12/03 08:08:25;;;;;;;37.60;26.10;;;2.50;99.90;;;;;;5032123;28;20704;-36
2020/12/03 08:10:53;;;;;;;36.47;26.00;;;2.50;99.90;;;;;;5032844;28;20226;-37
2020/12/03 08:13:27;;;;;;;38.10;27.63;;;2.40;99.90;;;;;;5032701;28;20305;-37
2020/12/03 08:15:57;;;;;;;38.33;27.93;;;2.50;99.90;;;;;;5033226;28;20650;-37
2020/12/03 08:18:58;;;;;;;38.93;27.70;;;2.50;99.90;;;;;;5032525;28;20211;-36
2020/12/03 08:21:38;;;;;;;38.73;27.43;;;2.40;99.90;;;;;;4999884;28;20643;-40
2020/12/03 08:24:06;;;;;;;35.83;25.27;;;2.50;99.90;;;;;;5032594;28;20192;-37
2020/12/03 08:26:34;;;;;;;37.20;27.00;;;2.50;99.90;;;;;;5031252;28;20196;-36
2020/12/03 08:29:00;;;;;;;35.03;26.63;;;2.60;99.90;;;;;;5032348;28;20271;-37
2020/12/03 08:31:27;;;;;;;38.70;27.07;;;2.60;99.90;;;;;;5032019;28;20240;-37
2020/12/03 08:33:54;;;;;;;40.07;28.27;;;2.60;99.90;;;;;;5032475;28;20223;-37
2020/12/03 08:36:23;;;;;;;37.40;27.43;;;2.60;99.90;;;;;;5033619;28;20306;-37
2020/12/03 08:38:54;;;;;;;38.03;26.33;;;2.60;99.90;;;;;;5031075;28;20230;-38
2020/12/03 08:41:26;;;;;;;34.70;24.93;;;2.70;99.90;;;;;;5031888;28;20247;-41
2020/12/03 08:43:54;;;;;;;37.27;25.77;;;2.70;99.90;;;;;;5032330;28;20194;-39
2020/12/03 08:46:23;;;;;;;34.97;24.93;;;2.70;99.90;;;;;;5031657;28;20207;-38
2020/12/03 08:48:49;;;;;;;36.20;27.23;;;2.80;99.90;;;;;;5031619;28;20295;-37
2020/12/03 08:51:18;;;;;;;32.23;24.73;;;2.80;99.90;;;;;;5034029;28;20255;-38
2020/12/03 08:53:47;;;;;;;32.50;25.40;;;2.90;99.90;;;;;;5032071;28;20234;-38
2020/12/03 08:56:33;;;;;;;31.33;23.50;;;2.90;99.90;;;;;;5031193;28;20718;-37
2020/12/03 08:59:05;;;;;;;32.63;23.47;;;2.80;99.90;;;;;;5031371;28;20192;-39
2020/12/03 09:01:35;;;;;;;34.63;24.87;;;2.90;99.90;;;;;;5031095;28;20273;-38
2020/12/03 09:04:04;;;;;;;29.53;23.00;;;3.00;99.90;;;;;;5031888;28;20274;-39
2020/12/03 09:06:36;;;;;;;31.67;23.57;;;3.00;99.90;;;;;;5031079;28;20194;-38
2020/12/03 09:09:03;;;;;;;31.33;23.27;;;3.10;99.90;;;;;;5030737;28;20534;-38
2020/12/03 09:11:34;;;;;;;33.17;24.80;;;3.00;99.90;;;;;;5031164;28;20232;-39
2020/12/03 09:14:02;;;;;;;29.47;21.53;;;3.10;99.90;;;;;;5031131;28;20262;-39
2020/12/03 09:16:31;;;;;;;29.47;22.13;;;3.20;99.90;;;;;;5031872;28;20215;-39
2020/12/03 09:18:58;;;;;;;29.80;23.73;;;3.30;99.90;;;;;;5031414;28;20211;-39
2020/12/03 09:21:26;;;;;;;28.37;21.77;;;3.30;99.90;;;;;;5031744;28;20219;-37
2020/12/03 09:23:55;;;;;;;28.33;21.50;;;3.20;99.90;;;;;;5031103;28;20227;-38
2020/12/03 09:26:28;;;;;;;30.77;23.00;;;3.10;99.90;;;;;;5031534;28;20303;-38
2020/12/03 09:28:56;;;;;;;28.47;21.70;;;3.20;99.90;;;;;;5032019;28;20405;-38
2020/12/03 09:31:24;;;;;;;28.67;21.67;;;3.20;99.90;;;;;;5032628;28;20251;-38
2020/12/03 09:33:52;;;;;;;29.37;21.37;;;3.20;99.90;;;;;;5028137;28;20207;-38
2020/12/03 09:36:19;;;;;;;31.93;23.57;;;3.30;99.90;;;;;;5030828;28;20215;-38
2020/12/03 09:38:48;;;;;;;28.87;22.93;;;3.30;99.90;;;;;;5031438;28;20305;-39
2020/12/03 09:41:20;;;;;;;29.50;22.63;;;3.40;99.90;;;;;;5030959;28;20644;-38
2020/12/03 09:43:48;;;;;;;25.17;20.07;;;3.40;99.90;;;;;;5031717;28;20211;-37
2020/12/03 09:46:19;;;;;;;28.60;21.83;;;3.30;99.90;;;;;;5035940;28;20192;-38
2020/12/03 09:48:47;;;;;;;31.02;23.30;;;3.30;99.90;;;;;;5031478;28;20231;-38
2020/12/03 09:51:14;;;;;;;29.60;22.93;;;3.30;99.90;;;;;;5031220;28;20796;-38
2020/12/03 09:53:40;;;;;;;28.07;20.97;;;3.40;99.90;;;;;;5031278;28;20210;-38
2020/12/03 09:56:07;;;;;;;28.20;20.47;;;3.30;99.90;;;;;;5031682;28;20263;-38
2020/12/03 09:58:34;;;;;;;27.70;20.27;;;3.40;99.90;;;;;;5031584;28;20739;-38
2020/12/03 10:01:05;;;;;;;27.43;20.30;;;3.40;99.90;;;;;;5031689;28;20222;-39
2020/12/03 10:04:21;;;;;;;32.43;21.63;;;3.40;99.90;;;;;;5031621;28;20672;-39
2020/12/03 10:06:56;;;;;;;27.00;20.07;;;3.60;99.90;;;;;;5031085;28;20218;-37
2020/12/03 10:09:44;;;;;;;28.80;20.33;;;3.60;99.90;;;;;;5031471;28;20230;-39
2020/12/03 10:12:25;;;;;;;24.97;19.87;;;3.70;99.90;;;;;;5030638;28;20298;-38
2020/12/03 10:15:18;;;;;;;22.87;17.20;;;3.80;99.90;;;;;;5030813;28;20283;-38
2020/12/03 10:18:03;;;;;;;26.80;19.93;;;3.80;99.90;;;;;;5031676;28;20744;-37
2020/12/03 10:20:30;;;;;;;27.43;19.23;;;3.90;99.90;;;;;;5032036;28;20226;-38
2020/12/03 10:23:17;;;;;;;26.73;20.23;;;3.80;99.90;;;;;;5031438;28;20196;-38
2020/12/03 10:25:59;;;;;;;27.47;19.33;;;3.90;99.90;;;;;;5029521;28;20259;-38
2020/12/03 10:28:37;;;;;;;23.13;18.43;;;3.80;99.90;;;;;;5029945;28;20751;-38
2020/12/03 10:31:05;;;;;;;23.07;18.10;;;3.80;99.90;;;;;;5028627;28;20208;-38
2020/12/03 10:33:35;;;;;;;25.23;18.80;;;3.80;99.90;;;;;;5030168;28;20200;-38
2020/12/03 10:36:19;;;;;;;24.42;18.10;;;3.70;99.90;;;;;;5030645;28;20702;-38
2020/12/03 10:38:48;;;;;;;24.57;16.77;;;3.70;99.90;;;;;;5028553;28;20282;-38
2020/12/03 10:41:16;;;;;;;26.53;18.57;;;3.80;99.90;;;;;;5030873;28;20595;-38
2020/12/03 10:43:46;;;;;;;23.30;18.07;;;3.70;99.90;;;;;;5031145;28;20235;-37
2020/12/03 10:46:21;;;;;;;23.83;17.70;;;3.70;99.90;;;;;;5030149;28;20196;-38
2020/12/03 10:48:49;;;;;;;22.70;15.73;;;3.70;99.90;;;;;;5030124;28;20200;-39
2020/12/03 10:51:17;;;;;;;24.13;17.37;;;3.70;99.90;;;;;;5033608;28;20726;-38
2020/12/03 10:53:47;;;;;;;22.53;17.27;;;3.80;99.90;;;;;;5029789;28;20291;-38
2020/12/03 10:56:15;;;;;;;23.73;17.30;;;3.90;99.90;;;;;;5030004;28;20225;-38
2020/12/03 10:58:49;;;;;;;22.33;18.17;;;4.00;99.90;;;;;;5021619;28;20220;-38
2020/12/03 11:01:22;;;;;;;22.53;16.53;;;4.00;99.90;;;;;;5029904;28;20273;-38
2020/12/03 11:03:52;;;;;;;21.40;16.00;;;4.10;99.90;;;;;;5034078;28;20211;-37
2020/12/03 11:06:24;;;;;;;21.70;18.00;;;4.10;99.90;;;;;;5034054;28;20560;-37
2020/12/03 11:08:51;;;;;;;17.77;14.60;;;4.00;99.90;;;;;;5036952;28;20293;-38
2020/12/03 11:11:19;;;;;;;23.27;15.80;;;4.00;99.90;;;;;;5042349;28;20250;-38
2020/12/03 11:13:46;;;;;;;18.57;15.77;;;4.00;99.90;;;;;;5045413;28;20219;-37
2020/12/03 11:16:15;;;;;;;18.38;14.82;;;4.00;99.90;;;;;;5047487;28;20258;-38
2020/12/03 11:18:47;;;;;;;19.13;15.27;;;4.10;99.90;;;;;;5040858;28;20273;-38
2020/12/03 11:21:19;;;;;;;19.23;14.50;;;4.10;99.90;;;;;;5031642;28;20208;-37
2020/12/03 11:24:14;;;;;;;18.93;14.13;;;4.10;99.90;;;;;;5031200;28;20200;-38
2020/12/03 11:26:45;;;;;;;17.47;13.70;;;4.00;99.90;;;;;;5030947;28;20437;-39
2020/12/03 11:29:13;;;;;;;18.33;13.57;;;4.00;99.90;;;;;;5029272;28;20196;-38
2020/12/03 11:31:40;;;;;;;18.00;14.70;;;4.10;99.90;;;;;;5018144;28;20230;-38
2020/12/03 11:34:08;;;;;;;19.93;15.27;;;4.00;99.90;;;;;;5032850;28;20284;-39
2020/12/03 11:36:36;;;;;;;15.73;13.70;;;4.10;99.90;;;;;;5031286;28;20227;-39
2020/12/03 11:39:05;;;;;;;18.65;14.35;;;4.10;99.90;;;;;;5031540;28;21652;-38
2020/12/03 11:41:41;;;;;;;18.17;14.67;;;4.20;99.90;;;;;;5028418;28;20230;-38
2020/12/03 11:44:35;;;;;;;17.43;14.43;;;4.20;99.90;;;;;;5035531;28;20207;-36
2020/12/03 11:47:45;;;;;;;18.63;14.73;;;4.20;99.90;;;;;;5034316;28;20199;-39
2020/12/03 11:50:18;;;;;;;17.77;13.57;;;4.30;99.90;;;;;;5033070;28;20199;-37
2020/12/03 11:52:45;;;;;;;19.03;15.70;;;4.30;99.90;;;;;;5030843;28;20203;-38
2020/12/03 11:55:19;;;;;;;17.80;13.60;;;4.50;99.90;;;;;;5029916;28;20286;-37
2020/12/03 11:57:46;;;;;;;19.30;13.80;;;4.60;99.90;;;;;;5028913;28;20206;-37
2020/12/03 12:00:20;;;;;;;18.60;14.23;;;4.50;99.90;;;;;;5030800;28;20291;-38
2020/12/03 12:02:50;;;;;;;17.57;13.90;;;4.20;99.90;;;;;;5030781;28;20225;-36
2020/12/03 12:05:28;;;;;;;16.93;14.03;;;4.20;99.90;;;;;;5015538;28;20222;-40
2020/12/03 12:08:02;;;;;;;19.13;14.83;;;4.20;99.90;;;;;;5016632;28;20281;-39
2020/12/03 12:10:31;;;;;;;19.43;13.97;;;4.30;99.90;;;;;;5027786;28;20310;-40
2020/12/03 12:12:58;;;;;;;16.30;12.80;;;4.30;99.90;;;;;;5030267;28;20227;-37
2020/12/03 12:15:25;;;;;;;15.50;12.53;;;4.20;99.90;;;;;;5026573;28;20215;-37
2020/12/03 12:17:51;;;;;;;15.23;12.23;;;4.10;99.90;;;;;;5028308;28;20196;-40
2020/12/03 12:20:18;;;;;;;16.13;12.77;;;4.20;99.90;;;;;;5029615;28;20222;-38
2020/12/03 12:22:45;;;;;;;14.53;12.33;;;4.20;99.90;;;;;;5026405;28;20295;-37
2020/12/03 12:25:12;;;;;;;17.93;12.97;;;4.10;99.90;;;;;;5030555;28;20272;-36
2020/12/03 12:27:39;;;;;;;16.87;12.70;;;4.00;99.90;;;;;;5031969;28;20666;-37
2020/12/03 12:30:06;;;;;;;16.77;13.20;;;4.00;99.90;;;;;;5026389;28;20206;-39
2020/12/03 12:32:32;;;;;;;19.87;15.13;;;4.10;99.90;;;;;;5032015;28;20251;-38
2020/12/03 12:34:59;;;;;;;17.10;14.33;;;4.10;99.90;;;;;;5030261;28;20207;-38
2020/12/03 12:37:26;;;;;;;19.10;14.60;;;4.00;99.90;;;;;;5026504;28;20226;-38
2020/12/03 12:39:53;;;;;;;18.90;13.70;;;3.90;99.90;;;;;;5008021;28;20254;-37
2020/12/03 12:42:25;;;;;;;22.97;16.53;;;4.00;99.90;;;;;;5030134;28;20241;-38
2020/12/03 12:44:52;;;;;;;19.70;15.60;;;4.10;99.90;;;;;;5020240;28;20300;-37
2020/12/03 12:47:21;;;;;;;24.17;18.03;;;4.10;99.90;;;;;;5031496;28;20223;-38
2020/12/03 12:49:48;;;;;;;22.60;16.13;;;4.10;99.90;;;;;;5032292;28;20227;-41
2020/12/03 12:52:14;;;;;;;20.00;15.23;;;4.00;99.90;;;;;;5032279;28;20242;-37
2020/12/03 12:54:41;;;;;;;21.93;14.87;;;4.00;99.90;;;;;;5030733;28;20203;-37
2020/12/03 12:57:08;;;;;;;21.23;16.30;;;3.90;99.90;;;;;;5029853;28;20281;-40
2020/12/03 12:59:35;;;;;;;21.03;16.53;;;4.00;99.90;;;;;;5026777;28;20299;-40
2020/12/03 13:02:01;;;;;;;21.23;15.10;;;4.60;99.90;;;;;;5031147;28;20223;-38